Date,TemperatureHighF,TemperatureAvgF,TemperatureLowF,DewpointHighF,DewpointAvgF,DewpointLowF,HumidityHigh,HumidityAvg,HumidityLow,PressureMaxIn,PressureMinIn,WindSpeedMaxMPH,WindSpeedAvgMPH,GustSpeedMaxMPH,PrecipitationSumIn
2013-1-2,32.0,26.5,19.0,18.0,12.8,9.0,79,56,40,0.00,40.00,3,1,7,0.55
2013-1-3,37.0,25.2,12.0,23.0,16.0,9.0,87,69,46,0.00,40.00,11,2,16,1.10
2013-1-4,38.0,32.6,27.0,24.0,21.3,19.0,77,63,46,0.00,40.00,12,4,22,0.00
2013-1-5,41.0,30.8,20.0,29.0,23.5,18.0,91,75,55,0.00,40.00,4,1,10,0.00
2013-1-6,40.0,34.5,29.0,31.0,26.7,20.0,80,72,66,0.00,40.00,9,3,22,0.00
2013-1-7,42.0,32.0,25.0,27.0,24.0,21.0,88,72,52,0.00,40.00,6,2,9,2.20
2013-1-8,52.0,33.5,22.0,34.0,26.7,20.0,91,77,48,0.00,40.00,5,1,10,0.00
2013-1-9,57.0,41.6,30.0,46.0,34.7,27.0,92,78,46,0.00,40.00,9,2,15,1.10
2013-1-10,43.0,35.8,28.0,40.0,33.0,26.0,94,89,74,0.00,40.00,3,1,8,1.10
2013-1-11,64.0,52.4,41.0,55.0,47.2,39.0,94,83,58,0.00,40.00,11,3,22,0.55
2013-1-12,45.0,42.8,41.0,43.0,41.0,39.0,94,93,92,0.00,40.00,2,1,5,0.00
2013-1-14,30.0,27.7,25.0,22.0,21.2,19.0,84,76,71,0.00,40.00,5,2,10,0.00
2013-1-15,34.0,30.9,24.0,25.0,22.9,20.0,84,72,63,0.00,40.00,6,2,10,0.00
2013-1-16,33.0,32.3,32.0,26.0,25.4,25.0,76,74,73,0.00,40.00,2,1,6,0.00
2013-1-17,46.0,38.0,29.0,31.0,25.7,20.0,71,61,50,0.00,40.00,7,2,13,0.00
2013-1-18,41.0,30.9,20.0,26.0,19.2,15.0,84,63,40,0.00,40.00,6,2,15,1.69
2013-1-19,56.0,45.1,36.0,28.0,26.4,24.0,65,49,28,0.00,40.00,12,5,28,0.00
2013-1-20,48.0,36.2,28.0,35.0,16.5,4.0,63,44,24,0.00,40.00,10,4,23,0.00
2013-1-21,28.0,23.2,14.0,16.0,8.2,-4.0,67,52,36,0.00,40.00,14,4,24,0.00
2013-1-22,21.0,14.5,8.0,1.0,-1.7,-5.0,68,49,31,0.00,40.00,9,3,16,2.79
2013-1-23,24.0,19.1,11.0,11.0,4.1,-1.0,68,51,41,0.00,40.00,6,2,10,0.00
2013-1-24,27.0,21.7,16.0,13.0,3.8,-4.0,64,47,28,0.00,40.00,7,3,17,0.00
2013-1-25,28.0,24.3,21.0,20.0,13.9,5.0,83,65,45,0.00,40.00,6,2,10,1.65
2013-1-26,35.0,25.5,17.0,21.0,17.3,14.0,90,72,45,0.00,40.00,5,2,10,0.00
2013-1-27,39.0,28.0,16.0,34.0,21.3,13.0,90,77,52,0.00,40.00,3,1,9,6.64
2013-1-28,52.0,46.5,36.0,50.0,43.9,33.0,94,90,78,0.00,40.00,7,3,16,1.65
2013-1-29,64.0,61.8,60.0,57.0,54.8,53.0,81,77,75,0.00,40.00,7,4,19,0.00
2013-1-30,67.0,53.4,34.0,58.0,47.7,24.0,94,81,65,0.00,40.00,16,6,30,7.24
2013-1-31,34.0,28.2,18.0,25.0,17.7,9.0,90,64,50,0.00,40.00,11,7,27,6.18
2013-2-1,20.0,13.7,8.0,9.0,3.4,0.0,78,63,50,0.00,40.00,9,4,19,1.65
2013-2-2,32.0,24.9,13.0,27.0,19.6,7.0,91,80,68,0.00,40.00,8,2,12,9.52
2013-2-3,29.0,23.0,16.0,23.0,15.9,11.0,85,73,61,0.00,40.00,8,2,19,1.10
2013-2-4,35.0,26.7,15.0,33.0,22.4,12.0,94,84,64,0.00,40.00,6,1,15,1.69
2013-2-5,38.0,32.8,27.0,31.0,28.3,24.0,94,83,72,0.00,40.00,4,1,9,0.00
2013-2-6,38.0,34.6,29.0,32.0,27.1,25.0,86,73,64,0.00,40.00,5,2,12,0.00
2013-2-7,60.0,41.2,30.0,38.0,31.3,26.0,87,70,37,0.00,40.00,3,1,7,0.00
2013-2-8,51.0,38.7,32.0,43.0,30.9,22.0,87,73,59,0.00,40.00,7,3,20,0.55
2013-2-9,45.0,33.3,24.0,23.0,19.9,16.0,83,59,34,0.00,40.00,4,1,7,0.00
2013-2-10,57.0,42.2,27.0,45.0,32.0,22.0,85,69,36,0.00,40.00,7,2,16,1.10
2013-2-11,52.0,47.4,38.0,49.0,34.3,26.0,91,62,41,0.00,40.00,16,7,32,0.00
2013-2-12,52.0,38.2,29.0,28.0,25.2,20.0,85,62,29,0.00,40.00,6,2,11,0.55
2013-2-13,38.0,32.8,30.0,32.0,28.3,24.0,91,83,70,0.00,40.00,4,2,9,3.30
2013-2-14,55.0,41.1,30.0,37.0,32.5,27.0,91,73,45,0.00,40.00,10,3,21,0.00
2013-2-15,43.0,34.1,26.0,31.0,26.2,20.0,87,73,45,0.00,40.00,9,2,18,3.94
2013-2-16,31.0,24.5,20.0,22.0,15.2,9.0,89,68,44,0.00,40.00,8,2,17,0.00
2013-2-17,35.0,23.8,13.0,15.0,9.5,1.0,86,57,23,0.00,40.00,4,1,9,1.10
2013-2-18,60.0,40.3,19.0,41.0,25.4,11.0,83,57,37,0.00,40.00,14,4,30,5.07
2013-2-19,47.0,34.3,26.0,42.0,25.0,13.0,90,69,51,0.00,40.00,13,7,27,3.34
2013-2-20,32.0,25.1,20.0,16.0,11.9,8.0,71,57,43,0.00,40.00,10,3,19,1.10
2013-2-21,36.0,27.7,22.0,25.0,18.1,14.0,81,67,51,0.00,40.00,12,3,17,2.20
2013-2-22,45.0,35.9,30.0,39.0,32.2,26.0,94,86,71,0.00,40.00,9,2,17,1.69
2013-2-23,46.0,36.4,32.0,32.0,26.3,22.0,92,68,42,0.00,40.00,6,2,11,0.55
2013-2-24,46.0,33.9,27.0,25.0,23.0,21.0,84,65,39,0.00,40.00,6,1,11,0.00
2013-2-25,48.0,35.0,22.0,28.0,23.7,20.0,92,66,36,0.00,40.00,7,2,16,1.10
2013-2-26,47.0,39.9,35.0,45.0,34.3,24.0,95,81,55,0.00,40.00,6,2,11,9.52
2013-2-27,38.0,36.0,34.0,34.0,31.8,29.0,90,83,72,0.00,40.00,9,5,22,2.20
2013-2-28,39.0,35.9,33.0,33.0,30.8,28.0,88,81,76,0.00,40.00,8,3,15,2.20
2013-3-1,38.0,34.8,31.0,35.0,31.1,24.0,92,86,75,0.00,40.00,4,2,9,1.65
2013-3-2,32.0,29.6,28.0,24.0,21.3,20.0,77,70,64,0.00,40.00,5,2,10,0.00
2013-3-3,35.0,30.0,23.0,23.0,19.0,17.0,80,63,51,0.00,40.00,6,2,12,0.00
2013-3-4,44.0,31.8,18.0,28.0,20.6,15.0,89,66,37,0.00,40.00,5,1,8,0.00
2013-3-5,40.0,37.0,31.0,37.0,31.4,26.0,95,80,59,0.00,40.00,13,2,25,20.74
2013-3-6,35.0,31.4,29.0,32.0,28.8,27.0,96,89,78,0.00,40.00,7,3,19,5.03
2013-3-7,33.0,32.1,32.0,29.0,29.0,29.0,88,87,86,0.00,40.00,2,1,6,0.00
2013-3-8,47.0,40.1,30.0,28.0,24.4,22.0,79,54,38,0.00,40.00,7,2,10,0.00
2013-3-9,61.0,42.6,27.0,37.0,30.0,24.0,91,65,35,0.00,40.00,5,1,10,0.00
2013-3-10,65.0,58.5,51.0,44.0,34.6,31.0,64,41,28,0.00,40.00,5,2,15,5.08
2013-3-11,57.0,49.5,40.0,52.0,44.1,31.0,93,82,59,0.00,40.00,13,4,29,21.42
2013-3-12,48.0,39.8,35.0,31.0,27.5,25.0,84,62,41,0.00,40.00,11,5,19,0.00
2013-3-13,36.0,31.3,27.0,31.0,24.0,18.0,91,74,56,0.00,40.00,11,4,20,3.85
2013-3-14,47.0,34.0,22.0,26.0,19.2,13.0,87,59,26,0.00,40.00,7,2,12,0.00
2013-3-15,56.0,41.5,30.0,39.0,32.6,27.0,89,71,48,0.00,40.00,6,2,11,0.00
2013-3-16,61.0,47.5,39.0,54.0,41.3,35.0,93,80,53,0.00,40.00,9,3,17,7.88
2013-3-17,39.0,37.0,35.0,35.0,30.3,28.0,86,76,69,0.00,40.00,6,3,13,3.34
2013-3-18,52.0,43.6,35.0,48.0,39.5,32.0,94,85,70,0.00,40.00,14,4,30,1.10
2013-3-19,47.0,38.3,30.0,34.0,20.7,10.0,83,52,23,0.00,40.00,19,6,32,0.00
2013-3-20,39.0,32.5,26.0,22.0,16.2,9.0,77,52,31,0.00,40.00,11,4,26,0.00
2013-3-21,35.0,27.8,22.0,17.0,10.9,5.0,67,49,32,0.00,40.00,6,2,12,0.55
2013-3-22,48.0,32.6,20.0,21.0,16.5,12.0,84,55,24,0.00,40.00,4,1,9,0.00
2013-3-23,55.0,40.7,29.0,27.0,22.9,17.0,75,52,25,0.00,40.00,6,1,10,0.00
2013-3-24,38.0,35.5,33.0,33.0,29.0,25.0,93,77,56,0.00,40.00,4,2,11,4.99
2013-3-25,37.0,33.6,31.0,33.0,30.3,28.0,94,87,80,0.00,40.00,7,-5,16,20.73
2013-3-26,44.0,36.6,33.0,32.0,28.1,24.0,86,72,54,0.00,40.00,9,2,16,4.99
2013-3-27,47.0,38.2,30.0,29.0,25.0,22.0,82,60,40,0.00,40.00,10,2,19,0.00
2013-3-28,53.0,39.2,27.0,28.0,24.9,22.0,85,59,31,0.00,40.00,6,1,12,1.10
2013-3-29,59.0,42.2,28.0,33.0,27.9,24.0,89,62,28,0.00,40.00,6,1,11,0.00
2013-3-30,64.0,47.4,30.0,37.0,31.6,28.0,90,59,27,0.00,40.00,7,1,12,0.00
2013-3-31,60.0,50.1,44.0,48.0,41.0,-99.9,94,75,47,0.00,40.00,11,2,19,4.48
2013-4-1,51.0,44.0,37.0,41.0,25.5,16.0,79,50,27,0.00,40.00,9,3,16,0.00
2013-4-2,50.0,37.6,26.0,25.0,17.6,10.0,80,48,22,0.00,40.00,8,2,20,1.10
2013-4-3,52.0,38.1,24.0,23.0,17.6,10.0,83,48,20,0.00,40.00,6,2,12,0.00
2013-4-4,59.0,43.7,33.0,26.0,19.2,10.0,72,42,14,0.00,40.00,7,1,12,0.00
2013-4-5,65.0,47.1,31.0,35.0,28.0,23.0,80,52,20,0.00,40.00,7,2,12,0.00
2013-4-6,70.0,52.6,34.0,39.0,30.7,21.0,84,48,23,0.00,40.00,7,2,12,0.00
2013-4-7,76.0,64.3,56.0,56.0,43.5,36.0,91,48,31,0.00,40.00,11,4,21,2.83
2013-4-8,74.0,62.5,52.0,55.0,53.2,51.0,94,73,49,0.00,40.00,9,3,22,2.20
2013-4-9,82.0,68.0,53.0,58.0,54.3,50.0,90,64,39,0.00,40.00,11,3,24,0.00
2013-4-10,85.0,74.0,65.0,62.0,58.9,57.0,78,60,38,0.00,40.00,12,4,24,0.00
2013-4-11,68.0,63.2,60.0,62.0,59.2,56.0,93,86,72,0.00,40.00,6,2,12,14.04
2013-4-12,60.0,48.4,42.0,58.0,37.9,29.0,93,68,50,0.00,40.00,11,5,27,3.30
2013-4-13,61.0,47.9,37.0,38.0,33.4,28.0,85,61,31,0.00,40.00,13,4,25,0.00
2013-4-14,75.0,55.6,37.0,45.0,39.8,34.0,90,60,28,0.00,40.00,4,1,9,0.00
2013-4-15,74.0,63.0,55.0,54.0,50.2,44.0,82,63,49,0.00,40.00,6,2,11,0.00
2013-4-16,81.0,64.4,53.0,64.0,57.1,50.0,94,78,52,0.00,40.00,9,3,22,0.00
2013-4-17,79.0,64.5,55.0,64.0,58.9,53.0,95,83,56,0.00,40.00,7,2,14,0.55
2013-4-18,84.0,73.1,62.0,62.0,57.1,51.0,87,60,38,0.00,40.00,10,4,31,0.00
2013-4-19,75.0,49.7,40.0,61.0,39.1,30.0,95,68,44,0.00,40.00,17,6,30,6.18
2013-4-20,53.0,43.7,35.0,35.0,29.1,23.0,87,59,31,0.00,40.00,11,3,21,0.00
2013-4-21,60.0,45.8,32.0,35.0,29.0,25.0,84,55,28,0.00,40.00,6,2,11,0.00
2013-4-22,73.0,53.5,34.0,44.0,35.4,31.0,90,56,24,0.00,40.00,4,1,12,0.00
2013-4-23,71.0,58.5,44.0,53.0,47.0,41.0,91,67,47,0.00,40.00,8,2,16,0.00
2013-4-24,66.0,51.5,39.0,55.0,43.5,34.0,94,75,54,0.00,40.00,8,3,21,6.73
2013-4-25,63.0,46.7,34.0,38.0,33.5,29.0,92,65,31,0.00,40.00,12,3,25,0.00
2013-4-26,64.0,49.4,33.0,44.0,32.8,26.0,91,59,25,0.00,40.00,4,1,7,0.00
2013-4-27,67.0,53.6,40.0,51.0,43.6,37.0,90,70,40,0.00,40.00,3,1,9,0.00
2013-4-28,67.0,60.5,56.0,60.0,53.4,-99.9,92,80,62,0.00,40.00,9,2,16,0.55
2013-4-29,66.0,59.6,54.0,57.0,54.5,51.0,93,83,64,0.00,40.00,3,1,8,0.00
2013-4-30,82.0,62.9,46.0,57.0,50.8,45.0,95,70,32,0.00,40.00,4,1,10,2.20
2013-5-1,88.0,69.3,52.0,59.0,53.3,50.0,93,62,29,0.00,40.00,5,1,11,0.00
2013-5-2,78.0,68.5,59.0,57.0,53.6,51.0,82,60,41,0.00,40.00,4,1,9,0.00
2013-5-3,80.0,68.5,56.0,58.0,52.4,38.0,90,59,30,0.00,40.00,6,2,14,0.00
2013-5-4,77.0,65.5,58.0,53.0,44.3,38.0,82,48,31,0.00,40.00,9,2,16,0.00
2013-5-5,58.0,54.8,51.0,53.0,51.2,49.0,94,87,77,0.00,40.00,7,1,14,15.62
2013-5-6,65.0,59.4,54.0,57.0,54.1,52.0,93,83,68,0.00,40.00,10,3,19,2.79
2013-5-7,76.0,63.6,57.0,59.0,56.0,53.0,93,78,46,0.00,40.00,7,1,14,0.00
2013-5-8,82.0,65.2,52.0,60.0,55.4,51.0,95,74,36,0.00,40.00,6,1,12,2.20
2013-5-9,82.0,68.1,56.0,62.0,55.4,47.0,92,68,28,0.00,40.00,6,1,11,0.00
2013-5-10,69.0,62.8,60.0,64.0,58.7,-99.9,94,90,78,0.00,40.00,6,2,17,5.03
2013-5-11,63.0,55.2,48.0,61.0,48.9,42.0,93,79,60,0.00,40.00,6,2,14,0.00
2013-5-12,59.0,49.1,40.0,42.0,33.4,-99.9,92,60,30,0.00,40.00,10,2,19,0.00
2013-5-13,66.0,52.0,37.0,40.0,33.4,25.0,90,54,24,0.00,40.00,8,2,21,0.00
2013-5-14,84.0,62.4,42.0,60.0,47.4,38.0,87,61,34,0.00,40.00,9,2,24,0.00
2013-5-15,90.0,76.9,66.0,59.0,56.8,54.0,75,52,30,0.00,40.00,12,4,25,0.00
2013-5-16,76.0,66.1,64.0,68.0,38.1,-99.9,91,73,53,0.00,40.00,5,2,11,0.55
2013-5-17,84.0,67.7,60.0,65.0,57.9,-99.9,95,83,46,0.00,40.00,6,1,12,2.20
2013-5-18,82.0,70.3,64.0,68.0,64.3,62.0,94,82,57,0.00,40.00,6,1,10,2.79
2013-5-19,89.0,72.9,61.0,68.0,64.0,60.0,95,76,42,0.00,40.00,3,1,9,1.10
2013-5-20,87.0,76.2,67.0,69.0,66.7,64.0,93,74,48,0.00,40.00,4,2,12,0.00
2013-5-21,87.0,75.7,67.0,67.0,64.0,61.0,88,68,44,0.00,40.00,8,2,17,0.00
2013-5-22,80.0,70.4,65.0,67.0,63.2,61.0,93,78,53,0.00,40.00,6,2,16,0.00
2013-5-23,70.0,64.0,54.0,64.0,57.7,50.0,93,80,56,0.00,40.00,9,3,17,1.69
2013-5-24,71.0,58.4,50.0,50.0,44.1,38.0,85,61,35,0.00,40.00,4,1,12,0.00
2013-5-25,68.0,55.7,43.0,52.0,44.5,41.0,94,69,39,0.00,40.00,4,1,7,0.55
2013-5-26,74.0,62.8,54.0,53.0,49.4,43.0,91,65,36,0.00,40.00,5,1,8,0.00
2013-5-27,86.0,70.3,56.0,60.0,54.8,45.0,89,60,33,0.00,40.00,4,1,16,3.93
2013-5-28,84.0,76.2,67.0,66.0,61.4,58.0,84,61,43,0.00,40.00,7,2,17,0.00
2013-5-29,90.0,77.5,67.0,65.0,60.7,56.0,80,58,33,0.00,40.00,9,2,16,0.00
2013-5-30,89.0,77.7,67.0,68.0,65.1,63.0,89,67,46,0.00,40.00,5,2,13,0.00
2013-5-31,84.0,73.8,70.0,69.0,66.5,64.0,92,78,57,0.00,40.00,7,2,19,3.94
2013-6-1,81.0,73.5,69.0,69.0,66.5,63.0,91,79,61,0.00,40.00,6,2,18,0.00
2013-6-2,80.0,71.5,65.0,65.0,59.2,-99.9,87,69,45,0.00,40.00,7,2,14,0.00
2013-6-3,75.0,64.4,56.0,59.0,52.3,49.0,87,65,46,0.00,40.00,6,1,12,0.00
2013-6-4,81.0,64.5,51.0,53.0,47.0,38.0,93,60,22,0.00,40.00,6,1,15,0.00
2013-6-5,86.0,69.6,56.0,63.0,55.7,51.0,86,64,39,0.00,40.00,4,1,9,0.00
2013-6-6,78.0,67.8,63.0,69.0,63.6,60.0,94,86,64,0.00,40.00,2,1,9,1.65
2013-6-7,78.0,67.9,60.0,62.0,59.3,57.0,93,75,50,0.00,40.00,2,1,6,0.00
2013-6-8,80.0,67.7,59.0,63.0,59.3,55.0,87,75,53,0.00,40.00,3,0,6,1.10
2013-6-9,83.0,70.8,60.0,70.0,63.3,58.0,93,79,46,0.00,40.00,3,0,11,0.00
2013-6-10,80.0,70.7,66.0,68.0,64.4,60.0,94,82,52,0.00,40.00,7,2,16,2.79
2013-6-11,89.0,74.0,63.0,69.0,63.9,59.0,93,73,42,0.00,40.00,8,2,13,0.00
2013-6-12,92.0,79.8,69.0,76.0,70.4,66.0,92,74,52,0.00,40.00,6,2,12,0.00
2013-6-13,82.0,76.9,66.0,72.0,64.6,54.0,95,67,44,0.00,40.00,10,2,30,1.10
2013-6-14,85.0,70.2,57.0,62.0,57.5,53.0,89,66,40,0.00,40.00,2,1,8,0.00
2013-6-15,88.0,71.8,58.0,66.0,60.7,56.0,93,70,42,0.00,40.00,3,1,9,0.00
2013-6-16,78.0,71.5,67.0,69.0,66.2,63.0,92,83,68,0.00,40.00,6,1,11,0.00
2013-6-17,91.0,75.7,67.0,73.0,67.1,63.0,93,77,42,0.00,40.00,6,1,14,0.00
2013-6-18,90.0,72.3,66.0,70.0,65.2,62.0,94,80,45,0.00,40.00,6,1,10,1.65
2013-6-19,86.0,71.6,60.0,64.0,57.7,54.0,91,65,35,0.00,40.00,4,1,9,0.00
2013-6-20,87.0,69.5,58.0,64.0,58.6,54.0,92,72,32,0.00,40.00,3,1,7,0.00
2013-6-22,90.0,80.5,70.0,72.0,68.6,64.0,90,68,50,0.00,40.00,6,2,12,0.00
2013-6-23,89.0,75.3,65.0,71.0,66.6,62.0,94,76,45,0.00,40.00,9,1,18,0.55
2013-6-24,88.0,74.5,66.0,70.0,66.9,64.0,92,78,52,0.00,40.00,6,1,11,0.00
2013-6-25,93.0,81.7,68.0,74.0,70.1,66.0,92,70,48,0.00,40.00,10,3,16,0.00
2013-6-26,87.0,73.1,68.0,74.0,68.6,65.0,94,86,63,0.00,40.00,10,2,22,13.40
2013-6-27,89.0,76.0,68.0,73.0,68.9,67.0,94,80,54,0.00,40.00,5,2,11,0.00
2013-6-28,87.0,73.7,66.0,69.0,64.9,57.0,94,77,35,0.00,40.00,9,3,21,2.83
2013-6-29,80.0,70.3,63.0,69.0,65.2,61.0,94,84,61,0.00,40.00,5,1,9,1.10
2013-6-30,81.0,71.3,66.0,69.0,65.2,62.0,93,82,54,0.00,40.00,4,1,9,0.00
2013-7-1,79.0,68.5,64.0,68.0,64.1,61.0,93,86,66,0.00,40.00,3,1,8,0.55
2013-7-2,85.0,73.7,66.0,68.0,65.6,64.0,94,77,52,0.00,40.00,6,1,10,0.00
2013-7-3,82.0,73.3,66.0,69.0,66.2,64.0,93,79,58,0.00,40.00,3,1,8,0.00
2013-7-4,72.0,70.6,69.0,69.0,68.1,66.0,94,91,86,0.00,40.00,2,1,6,8.89
2013-7-5,79.0,71.1,67.0,71.0,67.4,65.0,94,88,72,0.00,40.00,2,1,6,0.55
2013-7-6,75.0,71.3,68.0,71.0,68.5,66.0,94,91,81,0.00,40.00,4,1,12,5.62
2013-7-7,85.0,72.8,65.0,70.0,66.6,63.0,94,82,54,0.00,40.00,6,1,10,0.00
2013-7-8,87.0,74.7,67.0,73.0,68.4,65.0,94,82,59,0.00,40.00,7,2,13,0.00
2013-7-9,89.0,82.0,75.0,76.0,72.6,71.0,88,74,55,0.00,40.00,7,2,19,0.00
2013-7-10,90.0,77.5,74.0,77.0,68.9,-99.9,90,79,65,0.00,40.00,4,1,12,0.55
2013-7-11,85.0,75.6,68.0,71.0,65.7,59.0,93,73,50,0.00,40.00,2,1,12,0.00
2013-7-12,86.0,71.1,59.0,63.0,59.5,55.0,93,69,39,0.00,40.00,2,1,9,0.00
2013-7-13,86.0,77.2,65.0,67.0,63.5,61.0,88,64,46,0.00,40.00,7,2,13,0.00
2013-7-14,93.0,80.0,67.0,73.0,69.1,65.0,93,71,48,0.00,40.00,4,1,9,0.00
2013-7-15,96.0,80.6,71.0,74.0,70.3,67.0,92,74,40,0.00,40.00,2,1,7,0.00
2013-7-16,96.0,83.8,71.0,77.0,70.9,67.0,92,68,39,0.00,40.00,3,1,7,0.00
2013-7-17,96.0,83.9,74.0,76.0,73.2,71.0,91,72,47,0.00,40.00,2,1,8,0.00
2013-7-18,97.0,84.3,73.0,76.0,71.3,66.0,92,68,38,0.00,40.00,4,1,11,0.00
2013-7-19,91.0,83.5,76.0,79.0,74.0,71.0,91,74,57,0.00,40.00,6,2,11,0.00
2013-7-20,90.0,78.3,72.0,73.0,69.3,-99.9,92,76,55,0.00,40.00,7,2,17,0.00
2013-7-21,92.0,78.8,69.0,73.0,69.7,67.0,93,75,47,0.00,40.00,4,1,7,0.00
2013-7-22,81.0,74.8,70.0,75.0,70.3,68.0,92,86,72,0.00,40.00,3,1,11,5.63
2013-7-23,87.0,76.3,70.0,77.0,70.6,68.0,94,83,62,0.00,40.00,6,2,12,0.00
2013-7-24,82.0,70.2,60.0,65.0,59.5,56.0,85,69,46,0.00,40.00,5,1,11,0.00
2013-7-25,83.0,67.3,57.0,59.0,56.4,54.0,89,70,39,0.00,40.00,6,1,9,0.00
2013-7-26,83.0,69.7,57.0,64.0,59.2,55.0,93,72,43,0.00,40.00,4,1,8,0.00
2013-7-27,79.0,70.2,65.0,67.0,61.8,55.0,94,76,46,0.00,40.00,9,2,16,0.00
2013-7-28,75.0,66.1,54.0,55.0,51.6,47.0,90,61,41,0.00,40.00,9,3,14,0.00
2013-7-29,81.0,64.6,55.0,59.0,54.9,52.0,90,73,40,0.00,40.00,7,2,13,0.00
2013-7-30,80.0,68.0,56.0,66.0,60.0,55.0,93,77,49,0.00,40.00,4,1,7,0.00
2013-7-31,80.0,71.7,66.0,68.0,65.5,62.0,93,81,64,0.00,40.00,2,1,9,2.75
2013-8-1,86.0,74.6,65.0,68.0,62.4,53.0,92,68,38,0.00,40.00,7,2,16,0.00
2013-8-2,85.0,71.8,59.0,67.0,61.3,57.0,92,71,42,0.00,40.00,6,2,19,0.00
2013-8-3,86.0,74.6,66.0,70.0,66.5,62.0,93,77,54,0.00,40.00,2,1,9,1.69
2013-8-4,83.0,70.3,58.0,64.0,57.0,52.0,90,65,35,0.00,40.00,3,1,11,0.00
2013-8-5,83.0,67.7,56.0,63.0,57.4,54.0,93,72,38,0.00,40.00,3,1,8,0.00
2013-8-6,83.0,73.5,65.0,69.0,64.2,60.0,88,73,58,0.00,40.00,4,1,9,0.00
2013-8-7,86.0,76.5,68.0,74.0,70.3,66.0,92,81,62,0.00,40.00,3,1,7,0.00
2013-8-8,86.0,76.3,71.0,74.0,71.3,69.0,95,85,63,0.00,40.00,4,1,9,1.69
2013-8-9,86.0,75.3,70.0,73.0,70.3,68.0,95,84,62,0.00,40.00,3,1,9,0.00
2013-8-10,86.0,77.4,69.0,72.0,69.1,66.0,94,77,51,0.00,40.00,3,1,6,0.00
2013-8-11,89.0,76.6,69.0,71.0,67.3,64.0,94,75,45,0.00,40.00,7,1,12,0.00
2013-8-12,86.0,72.9,65.0,72.0,66.5,63.0,94,81,55,0.00,40.00,4,1,9,1.10
2013-8-13,82.0,72.8,61.0,72.0,60.9,-99.9,92,70,49,0.00,40.00,2,1,10,0.00
2013-8-20,89.0,72.0,61.0,68.0,59.2,-99.9,93,72,40,0.00,40.00,2,1,7,0.00
2013-8-21,87.0,74.8,67.0,73.0,68.0,65.0,94,80,56,0.00,40.00,2,1,6,0.00
2013-8-22,89.0,74.2,68.0,71.0,68.8,66.0,93,84,51,0.00,40.00,2,1,11,0.00
2013-8-23,86.0,76.1,68.0,69.0,66.8,65.0,94,74,53,0.00,40.00,2,1,6,0.00
2013-8-24,88.0,72.3,60.0,68.0,62.3,59.0,94,74,38,0.00,40.00,3,1,7,0.00
2013-8-25,88.0,71.9,60.0,66.0,56.8,-99.9,94,67,29,0.00,40.00,2,1,7,0.00
2013-8-26,89.0,75.2,62.0,73.0,66.6,60.0,92,76,48,0.00,40.00,6,2,14,0.00
2013-8-27,89.0,76.9,70.0,75.0,70.5,67.0,92,81,61,0.00,40.00,4,1,9,0.00
2013-8-28,94.0,87.5,78.0,75.0,71.8,68.0,87,62,42,0.00,40.00,9,4,22,0.00
2013-8-29,89.0,79.1,71.0,74.0,70.0,68.0,91,75,50,0.00,40.00,4,1,7,0.00
2013-8-30,92.0,78.6,67.0,72.0,67.8,65.0,93,72,43,0.00,40.00,6,1,10,0.00
2013-8-31,95.0,77.8,70.0,75.0,71.1,68.0,95,82,53,0.00,40.00,3,1,9,2.75
2013-9-1,86.0,73.8,69.0,72.0,65.6,-99.9,94,80,58,0.00,40.00,4,1,11,0.00
2013-9-15,78.0,58.3,46.0,60.0,46.9,-99.9,94,74,37,0.00,40.00,6,1,12,4.53
2013-9-16,76.0,64.9,57.0,61.0,56.8,52.0,93,76,49,0.00,40.00,2,1,9,0.00
2013-9-17,79.0,64.5,52.0,57.0,52.3,49.0,91,68,36,0.00,40.00,6,2,11,0.00
2013-9-18,59.0,57.2,56.0,56.0,54.5,53.0,91,90,87,0.00,40.00,1,1,5,0.00
2013-9-19,79.0,70.6,64.0,69.0,65.9,62.0,95,85,66,0.00,40.00,4,1,9,0.55
2013-9-20,86.0,73.0,66.0,70.0,67.2,64.0,94,83,56,0.00,40.00,12,2,19,4.48
2013-9-21,74.0,65.4,56.0,68.0,57.9,49.0,95,78,41,0.00,40.00,4,1,11,2.20
2013-9-22,73.0,58.2,48.0,52.0,45.8,-99.9,94,69,38,0.00,40.00,4,1,9,0.00
2013-9-23,72.0,57.5,46.0,51.0,47.2,44.0,94,72,40,0.00,40.00,7,1,11,0.00
2013-9-24,78.0,60.8,47.0,60.0,51.9,45.0,93,75,47,0.00,40.00,4,1,10,0.00
2013-9-25,77.0,64.3,55.0,58.0,54.2,51.0,92,72,44,0.00,40.00,4,1,9,0.00
2013-9-26,80.0,62.9,49.0,61.0,53.7,47.0,94,75,43,0.00,40.00,4,1,9,0.00
2013-10-2,78.0,67.0,59.0,68.0,62.9,57.0,94,87,69,0.00,40.00,5,2,9,0.00
2013-10-3,83.0,72.8,67.0,71.0,66.6,65.0,95,82,56,0.00,40.00,3,1,8,0.55
2013-10-4,84.0,72.4,63.0,73.0,66.0,62.0,95,81,58,0.00,40.00,3,1,9,0.00
2013-10-5,80.0,71.4,66.0,70.0,67.2,64.0,94,87,70,0.00,40.00,4,1,9,3.34
2013-10-6,72.0,63.3,55.0,67.0,61.4,53.0,95,93,86,0.00,40.00,6,2,17,6.64
2013-10-7,63.0,53.3,47.0,49.0,45.4,42.0,93,76,48,0.00,40.00,7,2,14,0.00
2013-10-8,71.0,53.7,43.0,51.0,45.3,42.0,96,77,35,0.00,40.00,5,1,9,4.40
2013-10-9,76.0,57.2,43.0,53.0,47.5,42.0,95,74,35,0.00,40.00,4,1,9,0.00
2013-10-10,74.0,55.3,44.0,49.0,45.1,41.0,95,74,30,0.00,40.00,2,1,6,0.00
2013-10-11,80.0,64.3,47.0,55.0,48.3,45.0,93,62,33,0.00,40.00,3,1,7,0.00
2013-10-12,77.0,61.7,49.0,61.0,54.2,48.0,94,78,46,0.00,40.00,2,1,4,0.00
2013-10-13,78.0,62.4,51.0,60.0,49.2,-99.9,94,69,41,0.00,40.00,2,1,6,0.00
2013-10-14,74.0,59.4,46.0,51.0,47.3,43.0,90,68,36,0.00,40.00,2,1,7,0.00
2013-10-15,75.0,61.7,50.0,63.0,56.7,48.0,92,84,63,0.00,40.00,5,2,9,0.00
2013-10-16,71.0,62.2,50.0,62.0,55.1,45.0,93,79,48,0.00,40.00,7,2,12,1.10
2013-10-17,56.0,48.9,43.0,50.0,45.0,41.0,94,86,68,0.00,40.00,11,2,20,5.04
2013-10-18,67.0,52.1,42.0,49.0,44.0,40.0,96,77,42,0.00,40.00,5,2,12,2.20
2013-10-19,51.0,46.8,40.0,47.0,41.9,38.0,93,83,65,0.00,40.00,6,2,14,9.06
2013-10-20,63.0,46.0,36.0,43.0,35.5,-99.9,94,74,45,0.00,40.00,6,2,14,0.00
2013-10-21,66.0,55.8,41.0,48.0,43.2,38.0,92,65,41,0.00,40.00,6,3,18,0.00
2013-10-22,55.0,45.6,34.0,47.0,33.1,24.0,89,65,30,0.00,40.00,5,1,11,2.20
2013-10-23,48.0,43.1,38.0,42.0,36.3,28.0,94,78,47,0.00,40.00,8,2,14,7.78
2013-10-24,45.0,40.1,38.0,37.0,33.9,28.0,91,78,51,0.00,40.00,9,3,17,0.55
2013-10-25,51.0,38.1,29.0,34.0,28.7,23.0,94,72,32,0.00,40.00,7,2,11,0.00
2013-10-26,55.0,41.0,29.0,39.0,31.6,27.0,91,71,45,0.00,40.00,8,2,17,0.00
2013-10-27,60.0,43.5,33.0,39.0,33.2,-99.9,94,73,36,0.00,40.00,4,1,7,0.00
2013-10-28,65.0,43.1,31.0,40.0,31.8,-99.9,94,73,26,0.00,40.00,2,1,6,0.00
2013-10-29,56.0,44.9,34.0,47.0,39.4,33.0,93,81,63,0.00,40.00,2,1,7,0.00
2013-11-1,65.0,57.7,49.0,55.0,46.4,40.0,91,68,40,0.00,40.00,9,4,21,0.00
2013-11-2,58.0,51.5,47.0,42.0,38.9,35.0,81,62,41,0.00,40.00,12,2,19,0.00
2013-11-3,56.0,44.4,37.0,41.0,37.6,35.0,93,78,53,0.00,40.00,4,1,9,0.00
2013-11-4,59.0,47.4,35.0,45.0,38.7,33.0,94,74,49,0.00,40.00,3,1,9,0.00
2013-11-5,63.0,54.1,49.0,47.0,44.0,41.0,92,70,45,0.00,40.00,6,1,8,0.55
2013-11-6,65.0,55.3,46.0,58.0,48.7,41.0,94,79,60,0.00,40.00,6,2,22,12.27
2013-11-7,51.0,44.2,38.0,43.0,32.9,24.0,91,67,36,0.00,40.00,6,2,12,0.00
2013-11-8,54.0,40.8,31.0,32.0,29.1,25.0,89,66,33,0.00,40.00,6,2,12,0.00
2013-11-9,63.0,47.7,35.0,38.0,30.8,-99.9,89,58,33,0.00,40.00,9,4,25,0.00
2013-11-10,54.0,45.3,32.0,39.0,31.1,25.0,88,59,35,0.00,40.00,5,1,14,0.00
2013-11-11,60.0,43.6,29.0,44.0,33.0,25.0,94,71,25,0.00,40.00,7,2,15,3.38
2013-11-12,40.0,33.7,27.0,35.0,25.3,20.0,93,72,48,0.00,40.00,5,3,13,2.75
2013-12-1,53.0,44.4,30.0,37.0,33.9,27.0,89,67,50,0.00,40.00,4,1,9,0.00
2013-12-2,52.0,43.2,34.0,40.0,36.2,31.0,90,77,56,0.00,40.00,2,1,6,0.00
2013-12-3,54.0,42.7,33.0,45.0,39.0,32.0,95,87,72,0.00,40.00,2,1,8,0.00
2013-12-4,62.0,52.9,42.0,56.0,49.2,40.0,93,87,81,0.00,40.00,2,1,6,0.00
2013-12-5,61.0,47.9,33.0,59.0,43.5,29.0,94,85,69,0.00,40.00,4,1,14,1.69
2013-12-6,33.0,29.1,27.0,29.0,27.2,26.0,94,92,84,0.00,40.00,3,1,9,16.28
2013-12-7,34.0,23.0,17.0,26.0,16.8,-99.9,93,82,63,0.00,40.00,4,1,10,1.10
2013-12-8,17.0,17.0,17.0,14.0,14.0,14.0,88,88,88,0.00,40.00,0,0,2,0.00
2013-12-9,31.0,28.3,25.0,25.0,22.5,18.0,86,78,74,0.00,40.00,6,2,14,0.00
2013-12-10,31.0,23.9,15.0,20.0,16.0,10.0,91,73,51,0.00,40.00,9,3,15,9.53
2013-12-11,37.0,21.6,9.0,24.0,14.8,6.0,92,76,52,0.00,40.00,7,2,16,0.00
2013-12-12,26.0,17.7,8.0,11.0,6.3,1.0,84,62,33,0.00,40.00,6,2,12,1.10
2013-12-13,40.0,27.1,14.0,31.0,18.0,9.0,91,69,46,0.00,40.00,4,2,9,1.10
2013-12-14,37.0,34.2,33.0,36.0,30.7,-99.9,95,91,90,0.00,40.00,7,1,16,1.65
2013-12-16,33.0,31.7,29.0,31.0,28.7,27.0,93,88,85,0.00,40.00,1,0,6,0.00
2013-12-17,34.0,31.2,29.0,30.0,26.1,24.0,93,81,69,0.00,40.00,8,2,15,0.55
2013-12-18,39.0,34.5,26.0,21.0,18.2,15.0,72,51,40,0.00,40.00,9,3,16,0.55
2013-12-19,54.0,44.7,34.0,41.0,30.6,21.0,72,57,52,0.00,40.00,5,3,12,0.00
2013-12-20,56.0,53.9,51.0,53.0,44.2,37.0,87,70,54,0.00,40.00,6,3,12,0.00
2013-12-22,53.0,46.7,40.0,43.0,40.3,35.0,87,78,67,0.00,40.00,9,4,18,0.00
2013-12-23,39.0,39.0,39.0,35.0,35.0,35.0,85,85,85,0.00,40.00,1,1,6,0.00
2013-12-24,25.0,20.2,16.0,14.0,10.8,6.0,86,67,54,0.00,40.00,6,2,11,1.65
2013-12-25,34.0,27.0,19.0,21.0,16.2,13.0,87,64,49,0.00,40.00,4,1,9,0.00